sensor_id;sensor_type;location;lat;lon;timestamp;P1;durP1;ratioP1;P2;durP2;ratioP2
29546;SDS011;40782;47.264;11.330;2022-08-19T00:00:18;5.30;;;4.15;;
29546;SDS011;40782;47.264;11.330;2022-08-19T00:02:46;5.40;;;3.72;;
29546;SDS011;40782;47.264;11.330;2022-08-19T00:05:14;4.68;;;3.78;;
29546;SDS011;40782;47.264;11.330;2022-08-19T00:07:41;5.88;;;4.03;;
29546;SDS011;40782;47.264;11.330;2022-08-19T00:10:09;6.93;;;3.90;;
29546;SDS011;40782;47.264;11.330;2022-08-19T00:12:39;6.47;;;4.20;;
29546;SDS011;40782;47.264;11.330;2022-08-19T00:15:07;5.22;;;3.83;;
29546;SDS011;40782;47.264;11.330;2022-08-19T00:17:37;7.07;;;4.82;;
29546;SDS011;40782;47.264;11.330;2022-08-19T00:20:05;4.82;;;4.10;;
29546;SDS011;40782;47.264;11.330;2022-08-19T00:22:35;5.20;;;4.47;;
29546;SDS011;40782;47.264;11.330;2022-08-19T00:25:03;4.55;;;4.10;;
29546;SDS011;40782;47.264;11.330;2022-08-19T00:27:31;5.07;;;4.50;;
29546;SDS011;40782;47.264;11.330;2022-08-19T00:29:59;7.38;;;5.00;;
29546;SDS011;40782;47.264;11.330;2022-08-19T00:32:29;6.10;;;4.53;;
29546;SDS011;40782;47.264;11.330;2022-08-19T00:34:56;4.75;;;4.35;;
29546;SDS011;40782;47.264;11.330;2022-08-19T00:37:23;5.88;;;4.40;;
29546;SDS011;40782;47.264;11.330;2022-08-19T00:39:52;4.85;;;4.20;;
29546;SDS011;40782;47.264;11.330;2022-08-19T00:42:21;5.22;;;4.18;;
29546;SDS011;40782;47.264;11.330;2022-08-19T00:44:49;8.10;;;4.63;;
29546;SDS011;40782;47.264;11.330;2022-08-19T00:47:18;4.80;;;4.35;;
29546;SDS011;40782;47.264;11.330;2022-08-19T00:49:46;4.43;;;4.03;;
29546;SDS011;40782;47.264;11.330;2022-08-19T00:52:18;6.95;;;4.35;;
29546;SDS011;40782;47.264;11.330;2022-08-19T00:54:48;5.72;;;3.70;;
29546;SDS011;40782;47.264;11.330;2022-08-19T00:57:18;4.40;;;4.00;;
29546;SDS011;40782;47.264;11.330;2022-08-19T00:59:51;5.90;;;3.90;;
29546;SDS011;40782;47.264;11.330;2022-08-19T01:02:21;4.45;;;4.00;;
29546;SDS011;40782;47.264;11.330;2022-08-19T01:04:49;5.35;;;4.00;;
29546;SDS011;40782;47.264;11.330;2022-08-19T01:07:16;4.18;;;3.35;;
29546;SDS011;40782;47.264;11.330;2022-08-19T01:09:44;4.28;;;3.88;;
29546;SDS011;40782;47.264;11.330;2022-08-19T01:12:12;4.57;;;3.50;;
29546;SDS011;40782;47.264;11.330;2022-08-19T01:14:40;5.10;;;3.92;;
29546;SDS011;40782;47.264;11.330;2022-08-19T01:17:07;6.43;;;3.75;;
29546;SDS011;40782;47.264;11.330;2022-08-19T01:19:38;5.03;;;3.90;;
29546;SDS011;40782;47.264;11.330;2022-08-19T01:22:08;7.28;;;3.95;;
29546;SDS011;40782;47.264;11.330;2022-08-19T01:24:42;4.28;;;3.80;;
29546;SDS011;40782;47.264;11.330;2022-08-19T01:27:09;6.57;;;4.28;;
29546;SDS011;40782;47.264;11.330;2022-08-19T01:29:38;6.10;;;3.92;;
29546;SDS011;40782;47.264;11.330;2022-08-19T01:32:07;4.57;;;3.88;;
29546;SDS011;40782;47.264;11.330;2022-08-19T01:34:37;5.50;;;3.40;;
29546;SDS011;40782;47.264;11.330;2022-08-19T01:37:05;4.10;;;3.80;;
29546;SDS011;40782;47.264;11.330;2022-08-19T01:39:36;6.40;;;3.50;;
29546;SDS011;40782;47.264;11.330;2022-08-19T01:42:07;4.40;;;3.45;;
29546;SDS011;40782;47.264;11.330;2022-08-19T01:44:37;4.65;;;3.72;;
29546;SDS011;40782;47.264;11.330;2022-08-19T01:47:06;4.28;;;3.88;;
29546;SDS011;40782;47.264;11.330;2022-08-19T01:49:35;5.53;;;3.55;;
29546;SDS011;40782;47.264;11.330;2022-08-19T01:52:04;4.18;;;3.80;;
29546;SDS011;40782;47.264;11.330;2022-08-19T01:54:32;5.35;;;3.45;;
29546;SDS011;40782;47.264;11.330;2022-08-19T01:57:00;3.55;;;3.22;;
29546;SDS011;40782;47.264;11.330;2022-08-19T01:59:31;5.13;;;3.50;;
29546;SDS011;40782;47.264;11.330;2022-08-19T02:02:01;5.00;;;3.72;;
29546;SDS011;40782;47.264;11.330;2022-08-19T02:04:31;3.97;;;3.58;;
29546;SDS011;40782;47.264;11.330;2022-08-19T02:06:59;5.15;;;3.25;;
29546;SDS011;40782;47.264;11.330;2022-08-19T02:09:26;5.57;;;3.58;;
29546;SDS011;40782;47.264;11.330;2022-08-19T02:11:53;3.72;;;3.42;;
29546;SDS011;40782;47.264;11.330;2022-08-19T02:14:20;5.38;;;3.40;;
29546;SDS011;40782;47.264;11.330;2022-08-19T02:16:49;5.20;;;4.03;;
29546;SDS011;40782;47.264;11.330;2022-08-19T02:19:17;6.30;;;4.32;;
29546;SDS011;40782;47.264;11.330;2022-08-19T02:21:44;5.45;;;3.65;;
29546;SDS011;40782;47.264;11.330;2022-08-19T02:24:11;5.10;;;3.45;;
29546;SDS011;40782;47.264;11.330;2022-08-19T02:26:39;7.10;;;3.70;;
29546;SDS011;40782;47.264;11.330;2022-08-19T02:29:06;5.38;;;4.05;;
29546;SDS011;40782;47.264;11.330;2022-08-19T02:31:33;8.77;;;3.58;;
29546;SDS011;40782;47.264;11.330;2022-08-19T02:34:02;4.03;;;3.67;;
29546;SDS011;40782;47.264;11.330;2022-08-19T02:36:29;5.22;;;3.85;;
29546;SDS011;40782;47.264;11.330;2022-08-19T02:38:57;4.07;;;3.67;;
29546;SDS011;40782;47.264;11.330;2022-08-19T02:41:24;6.18;;;4.05;;
29546;SDS011;40782;47.264;11.330;2022-08-19T02:43:52;5.85;;;3.85;;
29546;SDS011;40782;47.264;11.330;2022-08-19T02:46:20;4.05;;;3.75;;
29546;SDS011;40782;47.264;11.330;2022-08-19T02:48:52;6.22;;;4.03;;
29546;SDS011;40782;47.264;11.330;2022-08-19T02:51:23;4.97;;;3.97;;
29546;SDS011;40782;47.264;11.330;2022-08-19T02:53:52;4.10;;;3.70;;
29546;SDS011;40782;47.264;11.330;2022-08-19T02:56:20;4.50;;;3.97;;
29546;SDS011;40782;47.264;11.330;2022-08-19T02:58:47;6.45;;;4.25;;
29546;SDS011;40782;47.264;11.330;2022-08-19T03:01:19;4.47;;;4.05;;
29546;SDS011;40782;47.264;11.330;2022-08-19T03:03:47;4.30;;;3.90;;
29546;SDS011;40782;47.264;11.330;2022-08-19T03:06:15;4.22;;;3.90;;
29546;SDS011;40782;47.264;11.330;2022-08-19T03:08:45;4.55;;;3.95;;
29546;SDS011;40782;47.264;11.330;2022-08-19T03:11:14;3.90;;;3.55;;
29546;SDS011;40782;47.264;11.330;2022-08-19T03:13:42;4.75;;;4.20;;
29546;SDS011;40782;47.264;11.330;2022-08-19T03:16:09;4.30;;;3.90;;
29546;SDS011;40782;47.264;11.330;2022-08-19T03:18:37;5.63;;;4.22;;
29546;SDS011;40782;47.264;11.330;2022-08-19T03:21:05;6.07;;;4.15;;
29546;SDS011;40782;47.264;11.330;2022-08-19T03:23:32;5.07;;;4.15;;
29546;SDS011;40782;47.264;11.330;2022-08-19T03:26:03;4.65;;;3.90;;
29546;SDS011;40782;47.264;11.330;2022-08-19T03:28:32;5.47;;;4.13;;
29546;SDS011;40782;47.264;11.330;2022-08-19T03:31:00;5.07;;;3.72;;
29546;SDS011;40782;47.264;11.330;2022-08-19T03:33:30;5.47;;;4.15;;
29546;SDS011;40782;47.264;11.330;2022-08-19T03:36:05;4.35;;;3.97;;
29546;SDS011;40782;47.264;11.330;2022-08-19T03:38:35;6.95;;;4.18;;
29546;SDS011;40782;47.264;11.330;2022-08-19T03:41:05;6.75;;;4.57;;
29546;SDS011;40782;47.264;11.330;2022-08-19T03:43:35;6.45;;;4.57;;
29546;SDS011;40782;47.264;11.330;2022-08-19T03:46:05;5.50;;;4.22;;
29546;SDS011;40782;47.264;11.330;2022-08-19T03:48:33;4.55;;;4.15;;
29546;SDS011;40782;47.264;11.330;2022-08-19T03:51:02;5.95;;;4.25;;
29546;SDS011;40782;47.264;11.330;2022-08-19T03:53:30;5.13;;;4.20;;
29546;SDS011;40782;47.264;11.330;2022-08-19T03:55:58;6.63;;;4.47;;
29546;SDS011;40782;47.264;11.330;2022-08-19T03:58:27;6.63;;;4.90;;
29546;SDS011;40782;47.264;11.330;2022-08-19T04:00:56;6.97;;;4.20;;
29546;SDS011;40782;47.264;11.330;2022-08-19T04:03:24;6.97;;;4.78;;
29546;SDS011;40782;47.264;11.330;2022-08-19T04:05:52;4.57;;;4.18;;
29546;SDS011;40782;47.264;11.330;2022-08-19T04:08:19;6.07;;;4.38;;
29546;SDS011;40782;47.264;11.330;2022-08-19T04:10:48;4.95;;;4.35;;
29546;SDS011;40782;47.264;11.330;2022-08-19T04:13:15;5.03;;;4.55;;
29546;SDS011;40782;47.264;11.330;2022-08-19T04:15:45;6.03;;;4.35;;
29546;SDS011;40782;47.264;11.330;2022-08-19T04:18:12;4.80;;;4.40;;
29546;SDS011;40782;47.264;11.330;2022-08-19T04:20:41;5.82;;;5.05;;
29546;SDS011;40782;47.264;11.330;2022-08-19T04:23:09;7.20;;;5.18;;
29546;SDS011;40782;47.264;11.330;2022-08-19T04:25:37;6.35;;;4.78;;
29546;SDS011;40782;47.264;11.330;2022-08-19T04:28:06;6.43;;;4.93;;
29546;SDS011;40782;47.264;11.330;2022-08-19T04:30:39;6.43;;;4.85;;
29546;SDS011;40782;47.264;11.330;2022-08-19T04:33:09;6.82;;;4.90;;
29546;SDS011;40782;47.264;11.330;2022-08-19T04:35:38;7.65;;;4.70;;
29546;SDS011;40782;47.264;11.330;2022-08-19T04:38:07;7.70;;;5.15;;
29546;SDS011;40782;47.264;11.330;2022-08-19T04:40:39;5.50;;;4.63;;
29546;SDS011;40782;47.264;11.330;2022-08-19T04:43:25;6.10;;;5.00;;
29546;SDS011;40782;47.264;11.330;2022-08-19T04:45:53;7.38;;;5.45;;
29546;SDS011;40782;47.264;11.330;2022-08-19T04:48:22;5.93;;;4.78;;
29546;SDS011;40782;47.264;11.330;2022-08-19T04:50:51;5.47;;;4.60;;
29546;SDS011;40782;47.264;11.330;2022-08-19T04:53:22;6.20;;;4.75;;
29546;SDS011;40782;47.264;11.330;2022-08-19T04:55:50;6.78;;;4.35;;
29546;SDS011;40782;47.264;11.330;2022-08-19T04:58:17;6.30;;;4.47;;
29546;SDS011;40782;47.264;11.330;2022-08-19T05:00:45;4.85;;;4.28;;
29546;SDS011;40782;47.264;11.330;2022-08-19T05:03:12;4.88;;;4.47;;
29546;SDS011;40782;47.264;11.330;2022-08-19T05:05:42;5.70;;;4.78;;
29546;SDS011;40782;47.264;11.330;2022-08-19T05:08:13;8.15;;;5.45;;
29546;SDS011;40782;47.264;11.330;2022-08-19T05:10:45;6.97;;;5.30;;
29546;SDS011;40782;47.264;11.330;2022-08-19T05:13:13;5.47;;;4.97;;
29546;SDS011;40782;47.264;11.330;2022-08-19T05:15:41;6.20;;;4.95;;
29546;SDS011;40782;47.264;11.330;2022-08-19T05:18:09;5.43;;;4.93;;
29546;SDS011;40782;47.264;11.330;2022-08-19T05:20:55;7.05;;;5.10;;
29546;SDS011;40782;47.264;11.330;2022-08-19T05:23:39;5.78;;;5.18;;
29546;SDS011;40782;47.264;11.330;2022-08-19T05:26:07;6.93;;;4.60;;
29546;SDS011;40782;47.264;11.330;2022-08-19T05:28:36;7.90;;;5.07;;
29546;SDS011;40782;47.264;11.330;2022-08-19T05:31:03;5.15;;;4.70;;
29546;SDS011;40782;47.264;11.330;2022-08-19T05:33:30;5.30;;;4.80;;
29546;SDS011;40782;47.264;11.330;2022-08-19T05:35:59;5.80;;;4.38;;
29546;SDS011;40782;47.264;11.330;2022-08-19T05:38:28;5.78;;;5.22;;
29546;SDS011;40782;47.264;11.330;2022-08-19T05:40:55;5.70;;;5.15;;
29546;SDS011;40782;47.264;11.330;2022-08-19T05:43:22;4.75;;;4.35;;
29546;SDS011;40782;47.264;11.330;2022-08-19T05:45:49;9.02;;;5.63;;
29546;SDS011;40782;47.264;11.330;2022-08-19T05:48:16;8.57;;;5.20;;
29546;SDS011;40782;47.264;11.330;2022-08-19T05:50:45;5.68;;;5.13;;
29546;SDS011;40782;47.264;11.330;2022-08-19T05:53:16;7.97;;;4.88;;
29546;SDS011;40782;47.264;11.330;2022-08-19T05:55:44;5.93;;;5.28;;
29546;SDS011;40782;47.264;11.330;2022-08-19T05:58:11;5.32;;;4.82;;
29546;SDS011;40782;47.264;11.330;2022-08-19T06:00:38;5.72;;;5.13;;
29546;SDS011;40782;47.264;11.330;2022-08-19T06:03:06;6.00;;;5.38;;
29546;SDS011;40782;47.264;11.330;2022-08-19T06:05:33;5.20;;;4.70;;
29546;SDS011;40782;47.264;11.330;2022-08-19T06:08:00;7.25;;;4.47;;
29546;SDS011;40782;47.264;11.330;2022-08-19T06:10:29;4.22;;;3.88;;
29546;SDS011;40782;47.264;11.330;2022-08-19T06:12:56;5.97;;;5.03;;
29546;SDS011;40782;47.264;11.330;2022-08-19T06:15:24;5.03;;;4.50;;
29546;SDS011;40782;47.264;11.330;2022-08-19T06:17:51;7.90;;;4.68;;
29546;SDS011;40782;47.264;11.330;2022-08-19T06:20:18;7.45;;;4.90;;
29546;SDS011;40782;47.264;11.330;2022-08-19T06:22:47;6.90;;;4.78;;
29546;SDS011;40782;47.264;11.330;2022-08-19T06:25:16;9.57;;;4.93;;
29546;SDS011;40782;47.264;11.330;2022-08-19T06:27:45;4.95;;;4.55;;
29546;SDS011;40782;47.264;11.330;2022-08-19T06:30:12;6.90;;;5.10;;
29546;SDS011;40782;47.264;11.330;2022-08-19T06:32:40;5.07;;;4.57;;
29546;SDS011;40782;47.264;11.330;2022-08-19T06:35:08;6.93;;;5.03;;
29546;SDS011;40782;47.264;11.330;2022-08-19T06:37:36;5.53;;;5.03;;
29546;SDS011;40782;47.264;11.330;2022-08-19T06:40:03;5.25;;;4.53;;
29546;SDS011;40782;47.264;11.330;2022-08-19T06:42:34;5.32;;;4.57;;
29546;SDS011;40782;47.264;11.330;2022-08-19T06:45:05;5.55;;;4.85;;
29546;SDS011;40782;47.264;11.330;2022-08-19T06:47:33;7.40;;;4.90;;
29546;SDS011;40782;47.264;11.330;2022-08-19T06:50:01;5.45;;;4.75;;
29546;SDS011;40782;47.264;11.330;2022-08-19T06:52:29;5.15;;;4.60;;
29546;SDS011;40782;47.264;11.330;2022-08-19T06:54:57;8.00;;;5.07;;
29546;SDS011;40782;47.264;11.330;2022-08-19T06:57:24;5.10;;;4.38;;
29546;SDS011;40782;47.264;11.330;2022-08-19T06:59:52;5.35;;;4.85;;
29546;SDS011;40782;47.264;11.330;2022-08-19T07:02:23;5.93;;;4.40;;
29546;SDS011;40782;47.264;11.330;2022-08-19T07:04:51;7.20;;;4.85;;
29546;SDS011;40782;47.264;11.330;2022-08-19T07:07:19;5.38;;;4.32;;
29546;SDS011;40782;47.264;11.330;2022-08-19T07:09:48;5.13;;;4.63;;
29546;SDS011;40782;47.264;11.330;2022-08-19T07:12:18;5.87;;;4.53;;
29546;SDS011;40782;47.264;11.330;2022-08-19T07:14:45;15.25;;;13.43;;
29546;SDS011;40782;47.264;11.330;2022-08-19T07:17:13;9.45;;;5.60;;
29546;SDS011;40782;47.264;11.330;2022-08-19T07:19:42;7.90;;;6.78;;
29546;SDS011;40782;47.264;11.330;2022-08-19T07:22:09;9.65;;;8.15;;
29546;SDS011;40782;47.264;11.330;2022-08-19T07:24:37;15.75;;;9.88;;
29546;SDS011;40782;47.264;11.330;2022-08-19T07:27:05;9.88;;;5.95;;
29546;SDS011;40782;47.264;11.330;2022-08-19T07:29:35;8.55;;;6.30;;
29546;SDS011;40782;47.264;11.330;2022-08-19T07:32:03;8.98;;;6.30;;
29546;SDS011;40782;47.264;11.330;2022-08-19T07:34:31;10.52;;;6.72;;
29546;SDS011;40782;47.264;11.330;2022-08-19T07:37:03;8.13;;;6.80;;
29546;SDS011;40782;47.264;11.330;2022-08-19T07:39:32;6.07;;;5.53;;
29546;SDS011;40782;47.264;11.330;2022-08-19T07:42:02;9.55;;;7.32;;
29546;SDS011;40782;47.264;11.330;2022-08-19T07:44:33;7.05;;;6.28;;
29546;SDS011;40782;47.264;11.330;2022-08-19T07:47:00;6.97;;;6.20;;
29546;SDS011;40782;47.264;11.330;2022-08-19T07:49:28;8.90;;;7.72;;
29546;SDS011;40782;47.264;11.330;2022-08-19T07:51:57;11.75;;;6.70;;
29546;SDS011;40782;47.264;11.330;2022-08-19T07:54:28;9.13;;;6.70;;
29546;SDS011;40782;47.264;11.330;2022-08-19T07:56:59;6.90;;;6.20;;
29546;SDS011;40782;47.264;11.330;2022-08-19T07:59:26;7.75;;;6.78;;
29546;SDS011;40782;47.264;11.330;2022-08-19T08:01:54;8.02;;;6.88;;
29546;SDS011;40782;47.264;11.330;2022-08-19T08:04:21;9.73;;;6.00;;
29546;SDS011;40782;47.264;11.330;2022-08-19T08:07:06;7.50;;;6.57;;
29546;SDS011;40782;47.264;11.330;2022-08-19T08:09:53;9.52;;;6.85;;
29546;SDS011;40782;47.264;11.330;2022-08-19T08:12:25;7.82;;;6.45;;
29546;SDS011;40782;47.264;11.330;2022-08-19T08:14:56;8.30;;;5.75;;
29546;SDS011;40782;47.264;11.330;2022-08-19T08:17:27;9.32;;;6.03;;
29546;SDS011;40782;47.264;11.330;2022-08-19T08:19:55;8.57;;;5.10;;
29546;SDS011;40782;47.264;11.330;2022-08-19T08:22:23;9.52;;;5.60;;
29546;SDS011;40782;47.264;11.330;2022-08-19T08:25:15;10.07;;;5.78;;
29546;SDS011;40782;47.264;11.330;2022-08-19T08:27:44;8.25;;;5.75;;
29546;SDS011;40782;47.264;11.330;2022-08-19T08:30:14;9.95;;;5.45;;
29546;SDS011;40782;47.264;11.330;2022-08-19T08:32:43;6.18;;;5.53;;
29546;SDS011;40782;47.264;11.330;2022-08-19T08:35:11;6.55;;;5.50;;
29546;SDS011;40782;47.264;11.330;2022-08-19T08:37:40;6.00;;;4.72;;
29546;SDS011;40782;47.264;11.330;2022-08-19T08:40:09;7.95;;;5.40;;
29546;SDS011;40782;47.264;11.330;2022-08-19T08:42:47;7.75;;;5.22;;
29546;SDS011;40782;47.264;11.330;2022-08-19T08:45:19;6.50;;;4.47;;
29546;SDS011;40782;47.264;11.330;2022-08-19T08:47:48;5.97;;;5.05;;
29546;SDS011;40782;47.264;11.330;2022-08-19T08:50:18;6.88;;;4.57;;
29546;SDS011;40782;47.264;11.330;2022-08-19T08:52:49;5.38;;;4.45;;
29546;SDS011;40782;47.264;11.330;2022-08-19T08:55:22;4.93;;;4.43;;
29546;SDS011;40782;47.264;11.330;2022-08-19T08:57:53;4.38;;;3.95;;
29546;SDS011;40782;47.264;11.330;2022-08-19T09:00:26;5.35;;;4.82;;
29546;SDS011;40782;47.264;11.330;2022-08-19T09:02:55;5.88;;;4.95;;
29546;SDS011;40782;47.264;11.330;2022-08-19T09:05:25;5.47;;;4.32;;
29546;SDS011;40782;47.264;11.330;2022-08-19T09:07:59;7.15;;;4.55;;
29546;SDS011;40782;47.264;11.330;2022-08-19T09:10:32;4.95;;;4.38;;
29546;SDS011;40782;47.264;11.330;2022-08-19T09:13:05;5.30;;;4.30;;
29546;SDS011;40782;47.264;11.330;2022-08-19T09:15:40;4.78;;;4.38;;
29546;SDS011;40782;47.264;11.330;2022-08-19T09:18:14;4.63;;;4.10;;
29546;SDS011;40782;47.264;11.330;2022-08-19T09:20:42;4.85;;;4.40;;
29546;SDS011;40782;47.264;11.330;2022-08-19T09:23:09;7.32;;;4.43;;
29546;SDS011;40782;47.264;11.330;2022-08-19T09:25:38;8.27;;;5.20;;
29546;SDS011;40782;47.264;11.330;2022-08-19T09:28:06;7.32;;;5.28;;
29546;SDS011;40782;47.264;11.330;2022-08-19T09:30:33;7.22;;;5.20;;
29546;SDS011;40782;47.264;11.330;2022-08-19T09:33:05;7.60;;;5.13;;
29546;SDS011;40782;47.264;11.330;2022-08-19T09:35:32;6.82;;;4.65;;
29546;SDS011;40782;47.264;11.330;2022-08-19T09:38:00;4.85;;;4.32;;
29546;SDS011;40782;47.264;11.330;2022-08-19T09:40:28;4.85;;;4.22;;
29546;SDS011;40782;47.264;11.330;2022-08-19T09:42:58;4.65;;;3.92;;
29546;SDS011;40782;47.264;11.330;2022-08-19T09:45:27;4.88;;;3.90;;
29546;SDS011;40782;47.264;11.330;2022-08-19T09:47:55;3.95;;;3.65;;
29546;SDS011;40782;47.264;11.330;2022-08-19T09:50:23;4.05;;;3.45;;
29546;SDS011;40782;47.264;11.330;2022-08-19T09:52:50;4.43;;;4.03;;
29546;SDS011;40782;47.264;11.330;2022-08-19T09:55:22;4.18;;;3.63;;
29546;SDS011;40782;47.264;11.330;2022-08-19T09:57:49;5.75;;;3.22;;
29546;SDS011;40782;47.264;11.330;2022-08-19T10:00:17;4.20;;;3.90;;
29546;SDS011;40782;47.264;11.330;2022-08-19T10:02:46;6.05;;;4.40;;
29546;SDS011;40782;47.264;11.330;2022-08-19T10:05:13;6.57;;;4.10;;
29546;SDS011;40782;47.264;11.330;2022-08-19T10:07:57;5.07;;;4.53;;
29546;SDS011;40782;47.264;11.330;2022-08-19T10:10:25;5.32;;;4.53;;
29546;SDS011;40782;47.264;11.330;2022-08-19T10:12:52;5.13;;;4.68;;
29546;SDS011;40782;47.264;11.330;2022-08-19T10:15:22;4.95;;;4.50;;
29546;SDS011;40782;47.264;11.330;2022-08-19T10:17:49;5.72;;;5.07;;
29546;SDS011;40782;47.264;11.330;2022-08-19T10:20:16;6.47;;;4.50;;
29546;SDS011;40782;47.264;11.330;2022-08-19T10:22:44;4.80;;;4.30;;
29546;SDS011;40782;47.264;11.330;2022-08-19T10:25:11;5.55;;;4.60;;
29546;SDS011;40782;47.264;11.330;2022-08-19T10:27:39;5.05;;;4.65;;
29546;SDS011;40782;47.264;11.330;2022-08-19T10:30:07;5.20;;;4.80;;
29546;SDS011;40782;47.264;11.330;2022-08-19T10:32:36;6.68;;;5.30;;
29546;SDS011;40782;47.264;11.330;2022-08-19T10:35:04;5.43;;;4.93;;
29546;SDS011;40782;47.264;11.330;2022-08-19T10:37:33;5.38;;;4.72;;
29546;SDS011;40782;47.264;11.330;2022-08-19T10:40:03;5.75;;;4.40;;
29546;SDS011;40782;47.264;11.330;2022-08-19T10:42:31;4.60;;;4.20;;
29546;SDS011;40782;47.264;11.330;2022-08-19T10:44:59;4.68;;;4.13;;
29546;SDS011;40782;47.264;11.330;2022-08-19T10:47:26;3.78;;;3.58;;
29546;SDS011;40782;47.264;11.330;2022-08-19T10:49:55;3.80;;;3.50;;
29546;SDS011;40782;47.264;11.330;2022-08-19T10:52:40;3.40;;;3.15;;
29546;SDS011;40782;47.264;11.330;2022-08-19T10:55:08;4.10;;;3.70;;
29546;SDS011;40782;47.264;11.330;2022-08-19T10:57:52;3.13;;;2.80;;
29546;SDS011;40782;47.264;11.330;2022-08-19T11:00:20;2.88;;;2.67;;
29546;SDS011;40782;47.264;11.330;2022-08-19T11:02:48;2.72;;;2.38;;
29546;SDS011;40782;47.264;11.330;2022-08-19T11:05:17;1.95;;;1.85;;
29546;SDS011;40782;47.264;11.330;2022-08-19T11:07:46;2.25;;;2.10;;
29546;SDS011;40782;47.264;11.330;2022-08-19T11:10:16;1.92;;;1.83;;
29546;SDS011;40782;47.264;11.330;2022-08-19T11:12:44;2.40;;;2.10;;
29546;SDS011;40782;47.264;11.330;2022-08-19T11:15:12;2.17;;;1.98;;
29546;SDS011;40782;47.264;11.330;2022-08-19T11:17:40;3.55;;;1.92;;
29546;SDS011;40782;47.264;11.330;2022-08-19T11:20:09;2.33;;;2.13;;
29546;SDS011;40782;47.264;11.330;2022-08-19T11:22:39;2.00;;;1.90;;
29546;SDS011;40782;47.264;11.330;2022-08-19T11:25:07;1.98;;;1.80;;
29546;SDS011;40782;47.264;11.330;2022-08-19T11:27:37;1.75;;;1.63;;
29546;SDS011;40782;47.264;11.330;2022-08-19T11:30:08;1.67;;;1.30;;
29546;SDS011;40782;47.264;11.330;2022-08-19T11:32:37;1.23;;;1.13;;
29546;SDS011;40782;47.264;11.330;2022-08-19T11:35:04;1.33;;;1.33;;
29546;SDS011;40782;47.264;11.330;2022-08-19T11:37:32;1.50;;;1.27;;
29546;SDS011;40782;47.264;11.330;2022-08-19T11:40:05;1.00;;;1.00;;
29546;SDS011;40782;47.264;11.330;2022-08-19T11:42:34;1.77;;;1.13;;
29546;SDS011;40782;47.264;11.330;2022-08-19T11:45:18;1.48;;;1.20;;
29546;SDS011;40782;47.264;11.330;2022-08-19T11:47:46;1.10;;;0.90;;
29546;SDS011;40782;47.264;11.330;2022-08-19T11:50:13;1.20;;;1.05;;
29546;SDS011;40782;47.264;11.330;2022-08-19T11:52:40;1.10;;;1.00;;
29546;SDS011;40782;47.264;11.330;2022-08-19T11:55:10;1.45;;;1.00;;
29546;SDS011;40782;47.264;11.330;2022-08-19T11:57:38;1.42;;;1.17;;
29546;SDS011;40782;47.264;11.330;2022-08-19T12:00:06;1.48;;;1.00;;
29546;SDS011;40782;47.264;11.330;2022-08-19T12:02:35;4.40;;;1.15;;
29546;SDS011;40782;47.264;11.330;2022-08-19T12:05:03;1.98;;;1.10;;
29546;SDS011;40782;47.264;11.330;2022-08-19T12:07:31;1.05;;;1.05;;
29546;SDS011;40782;47.264;11.330;2022-08-19T12:09:59;1.20;;;1.10;;
29546;SDS011;40782;47.264;11.330;2022-08-19T12:12:28;2.20;;;0.90;;
29546;SDS011;40782;47.264;11.330;2022-08-19T12:14:55;1.00;;;0.90;;
29546;SDS011;40782;47.264;11.330;2022-08-19T12:17:23;1.48;;;0.85;;
29546;SDS011;40782;47.264;11.330;2022-08-19T12:19:51;1.85;;;1.00;;
29546;SDS011;40782;47.264;11.330;2022-08-19T12:22:18;1.88;;;1.10;;
29546;SDS011;40782;47.264;11.330;2022-08-19T12:24:46;1.55;;;0.90;;
29546;SDS011;40782;47.264;11.330;2022-08-19T12:27:15;0.80;;;0.80;;
29546;SDS011;40782;47.264;11.330;2022-08-19T12:29:44;2.70;;;1.00;;
29546;SDS011;40782;47.264;11.330;2022-08-19T12:32:12;1.63;;;0.82;;
29546;SDS011;40782;47.264;11.330;2022-08-19T12:34:39;0.93;;;0.93;;
29546;SDS011;40782;47.264;11.330;2022-08-19T12:37:07;2.92;;;0.88;;
29546;SDS011;40782;47.264;11.330;2022-08-19T12:39:37;2.05;;;1.00;;
29546;SDS011;40782;47.264;11.330;2022-08-19T12:42:07;0.63;;;0.63;;
29546;SDS011;40782;47.264;11.330;2022-08-19T12:44:34;1.10;;;0.90;;
29546;SDS011;40782;47.264;11.330;2022-08-19T12:47:03;0.75;;;0.70;;
29546;SDS011;40782;47.264;11.330;2022-08-19T12:49:32;1.42;;;0.70;;
29546;SDS011;40782;47.264;11.330;2022-08-19T12:52:02;1.08;;;0.90;;
29546;SDS011;40782;47.264;11.330;2022-08-19T12:54:30;1.20;;;0.70;;
29546;SDS011;40782;47.264;11.330;2022-08-19T12:56:58;1.35;;;0.60;;
29546;SDS011;40782;47.264;11.330;2022-08-19T12:59:26;1.05;;;0.70;;
29546;SDS011;40782;47.264;11.330;2022-08-19T13:01:53;1.25;;;0.68;;
29546;SDS011;40782;47.264;11.330;2022-08-19T13:04:22;5.20;;;0.75;;
29546;SDS011;40782;47.264;11.330;2022-08-19T13:06:50;0.70;;;0.70;;
29546;SDS011;40782;47.264;11.330;2022-08-19T13:09:17;1.42;;;0.73;;
29546;SDS011;40782;47.264;11.330;2022-08-19T13:11:44;1.20;;;1.10;;
29546;SDS011;40782;47.264;11.330;2022-08-19T13:14:12;1.55;;;0.90;;
29546;SDS011;40782;47.264;11.330;2022-08-19T13:16:39;0.68;;;0.68;;
29546;SDS011;40782;47.264;11.330;2022-08-19T13:19:06;0.95;;;0.70;;
29546;SDS011;40782;47.264;11.330;2022-08-19T13:21:35;1.33;;;0.70;;
29546;SDS011;40782;47.264;11.330;2022-08-19T13:24:02;1.55;;;0.82;;
29546;SDS011;40782;47.264;11.330;2022-08-19T13:26:29;1.05;;;0.77;;
29546;SDS011;40782;47.264;11.330;2022-08-19T13:28:57;0.60;;;0.60;;
29546;SDS011;40782;47.264;11.330;2022-08-19T13:31:41;0.50;;;0.50;;
29546;SDS011;40782;47.264;11.330;2022-08-19T13:34:27;8.93;;;1.80;;
29546;SDS011;40782;47.264;11.330;2022-08-19T13:36:57;4.43;;;1.52;;
29546;SDS011;40782;47.264;11.330;2022-08-19T13:39:25;4.05;;;1.40;;
29546;SDS011;40782;47.264;11.330;2022-08-19T13:41:53;3.10;;;1.48;;
29546;SDS011;40782;47.264;11.330;2022-08-19T13:44:20;1.83;;;1.10;;
29546;SDS011;40782;47.264;11.330;2022-08-19T13:46:48;2.63;;;1.40;;
29546;SDS011;40782;47.264;11.330;2022-08-19T13:49:17;1.33;;;1.20;;
29546;SDS011;40782;47.264;11.330;2022-08-19T13:51:45;1.05;;;0.93;;
29546;SDS011;40782;47.264;11.330;2022-08-19T13:54:14;1.15;;;1.05;;
29546;SDS011;40782;47.264;11.330;2022-08-19T13:56:41;1.10;;;1.10;;
29546;SDS011;40782;47.264;11.330;2022-08-19T13:59:09;0.70;;;0.70;;
29546;SDS011;40782;47.264;11.330;2022-08-19T14:01:37;0.90;;;0.90;;
29546;SDS011;40782;47.264;11.330;2022-08-19T14:04:05;0.90;;;0.82;;
29546;SDS011;40782;47.264;11.330;2022-08-19T14:06:32;1.33;;;1.15;;
29546;SDS011;40782;47.264;11.330;2022-08-19T14:09:00;3.13;;;1.50;;
29546;SDS011;40782;47.264;11.330;2022-08-19T14:11:30;4.28;;;1.75;;
29546;SDS011;40782;47.264;11.330;2022-08-19T14:13:57;7.65;;;1.48;;
29546;SDS011;40782;47.264;11.330;2022-08-19T14:16:24;3.67;;;1.75;;
29546;SDS011;40782;47.264;11.330;2022-08-19T14:18:52;5.65;;;2.40;;
29546;SDS011;40782;47.264;11.330;2022-08-19T14:21:20;10.07;;;2.50;;
29546;SDS011;40782;47.264;11.330;2022-08-19T14:23:50;2.45;;;1.42;;
29546;SDS011;40782;47.264;11.330;2022-08-19T14:26:19;5.53;;;1.65;;
29546;SDS011;40782;47.264;11.330;2022-08-19T14:28:48;2.53;;;1.23;;
29546;SDS011;40782;47.264;11.330;2022-08-19T14:31:17;4.63;;;1.75;;
29546;SDS011;40782;47.264;11.330;2022-08-19T14:33:46;4.78;;;1.70;;
29546;SDS011;40782;47.264;11.330;2022-08-19T14:36:14;2.28;;;1.27;;
29546;SDS011;40782;47.264;11.330;2022-08-19T14:38:41;4.20;;;1.52;;
29546;SDS011;40782;47.264;11.330;2022-08-19T14:41:10;3.67;;;1.63;;
29546;SDS011;40782;47.264;11.330;2022-08-19T14:43:39;5.85;;;1.40;;